sensor_id;sensor_type;location;lat;lon;timestamp;P1;durP1;ratioP1;P2;durP2;ratioP2
56181;SDS011;51963;46.052;14.544;2023-07-31T00:01:29;1.80;;;1.27;;
56181;SDS011;51963;46.052;14.544;2023-07-31T00:03:55;3.80;;;1.45;;
56181;SDS011;51963;46.052;14.544;2023-07-31T00:06:21;3.47;;;1.20;;
56181;SDS011;51963;46.052;14.544;2023-07-31T00:08:46;2.80;;;1.40;;
56181;SDS011;51963;46.052;14.544;2023-07-31T00:11:12;3.45;;;1.20;;
56181;SDS011;51963;46.052;14.544;2023-07-31T00:13:38;2.53;;;1.10;;
56181;SDS011;51963;46.052;14.544;2023-07-31T00:16:03;2.78;;;1.45;;
56181;SDS011;51963;46.052;14.544;2023-07-31T00:18:29;1.20;;;1.00;;
56181;SDS011;51963;46.052;14.544;2023-07-31T00:20:55;2.03;;;1.40;;
56181;SDS011;51963;46.052;14.544;2023-07-31T00:23:20;1.00;;;0.90;;
56181;SDS011;51963;46.052;14.544;2023-07-31T00:25:46;2.13;;;1.15;;
56181;SDS011;51963;46.052;14.544;2023-07-31T00:28:12;1.52;;;1.05;;
56181;SDS011;51963;46.052;14.544;2023-07-31T00:30:37;2.65;;;1.10;;
56181;SDS011;51963;46.052;14.544;2023-07-31T00:33:04;4.05;;;1.38;;
56181;SDS011;51963;46.052;14.544;2023-07-31T00:35:29;3.67;;;1.17;;
56181;SDS011;51963;46.052;14.544;2023-07-31T00:37:56;1.88;;;1.30;;
56181;SDS011;51963;46.052;14.544;2023-07-31T00:40:23;3.33;;;1.20;;
56181;SDS011;51963;46.052;14.544;2023-07-31T00:42:48;2.45;;;1.50;;
56181;SDS011;51963;46.052;14.544;2023-07-31T00:45:14;2.15;;;1.35;;
56181;SDS011;51963;46.052;14.544;2023-07-31T00:47:40;2.53;;;1.30;;
56181;SDS011;51963;46.052;14.544;2023-07-31T00:50:06;1.92;;;1.50;;
56181;SDS011;51963;46.052;14.544;2023-07-31T00:52:32;1.88;;;1.15;;
56181;SDS011;51963;46.052;14.544;2023-07-31T00:54:58;2.97;;;1.73;;
56181;SDS011;51963;46.052;14.544;2023-07-31T00:57:24;3.35;;;1.50;;
56181;SDS011;51963;46.052;14.544;2023-07-31T00:59:50;2.85;;;1.40;;
56181;SDS011;51963;46.052;14.544;2023-07-31T01:02:16;2.40;;;1.30;;
56181;SDS011;51963;46.052;14.544;2023-07-31T01:04:42;1.80;;;1.50;;
56181;SDS011;51963;46.052;14.544;2023-07-31T01:09:47;2.28;;;1.50;;
56181;SDS011;51963;46.052;14.544;2023-07-31T01:12:22;2.75;;;1.50;;
56181;SDS011;51963;46.052;14.544;2023-07-31T01:15:03;3.55;;;1.50;;
56181;SDS011;51963;46.052;14.544;2023-07-31T01:17:37;1.50;;;1.30;;
56181;SDS011;51963;46.052;14.544;2023-07-31T01:20:05;2.53;;;1.50;;
56181;SDS011;51963;46.052;14.544;2023-07-31T01:28:04;3.40;;;1.58;;
56181;SDS011;51963;46.052;14.544;2023-07-31T01:30:37;4.15;;;1.80;;
56181;SDS011;51963;46.052;14.544;2023-07-31T01:33:07;3.78;;;1.60;;
56181;SDS011;51963;46.052;14.544;2023-07-31T01:35:34;1.98;;;1.63;;
56181;SDS011;51963;46.052;14.544;2023-07-31T01:38:01;3.78;;;1.50;;
56181;SDS011;51963;46.052;14.544;2023-07-31T01:40:27;2.22;;;1.73;;
56181;SDS011;51963;46.052;14.544;2023-07-31T01:42:53;3.63;;;1.75;;
56181;SDS011;51963;46.052;14.544;2023-07-31T01:45:19;3.58;;;1.85;;
56181;SDS011;51963;46.052;14.544;2023-07-31T01:47:45;3.58;;;2.00;;
56181;SDS011;51963;46.052;14.544;2023-07-31T01:50:11;4.65;;;2.00;;
56181;SDS011;51963;46.052;14.544;2023-07-31T01:52:37;5.10;;;2.00;;
56181;SDS011;51963;46.052;14.544;2023-07-31T01:55:02;3.53;;;1.50;;
56181;SDS011;51963;46.052;14.544;2023-07-31T01:57:29;4.25;;;1.90;;
56181;SDS011;51963;46.052;14.544;2023-07-31T01:59:54;4.50;;;1.60;;
56181;SDS011;51963;46.052;14.544;2023-07-31T02:02:20;4.82;;;1.55;;
56181;SDS011;51963;46.052;14.544;2023-07-31T02:04:46;2.30;;;1.60;;
56181;SDS011;51963;46.052;14.544;2023-07-31T02:07:12;3.92;;;1.67;;
56181;SDS011;51963;46.052;14.544;2023-07-31T02:09:37;3.67;;;1.60;;
56181;SDS011;51963;46.052;14.544;2023-07-31T02:12:03;3.50;;;1.67;;
56181;SDS011;51963;46.052;14.544;2023-07-31T02:14:29;3.38;;;1.75;;
56181;SDS011;51963;46.052;14.544;2023-07-31T02:16:55;1.90;;;1.70;;
56181;SDS011;51963;46.052;14.544;2023-07-31T02:19:21;5.15;;;1.80;;
56181;SDS011;51963;46.052;14.544;2023-07-31T02:21:46;3.45;;;2.20;;
56181;SDS011;51963;46.052;14.544;2023-07-31T02:24:12;3.33;;;2.00;;
56181;SDS011;51963;46.052;14.544;2023-07-31T02:26:38;3.83;;;2.20;;
56181;SDS011;51963;46.052;14.544;2023-07-31T02:29:03;3.47;;;2.10;;
56181;SDS011;51963;46.052;14.544;2023-07-31T02:31:29;4.38;;;2.25;;
56181;SDS011;51963;46.052;14.544;2023-07-31T02:36:22;4.03;;;1.98;;
56181;SDS011;51963;46.052;14.544;2023-07-31T02:38:48;4.25;;;1.88;;
56181;SDS011;51963;46.052;14.544;2023-07-31T02:41:14;3.35;;;1.88;;
56181;SDS011;51963;46.052;14.544;2023-07-31T02:43:39;3.00;;;1.65;;
56181;SDS011;51963;46.052;14.544;2023-07-31T02:46:06;2.70;;;1.90;;
56181;SDS011;51963;46.052;14.544;2023-07-31T02:48:31;3.08;;;1.83;;
56181;SDS011;51963;46.052;14.544;2023-07-31T02:50:57;2.50;;;1.60;;
56181;SDS011;51963;46.052;14.544;2023-07-31T02:53:23;3.47;;;1.70;;
56181;SDS011;51963;46.052;14.544;2023-07-31T02:55:48;3.03;;;1.50;;
56181;SDS011;51963;46.052;14.544;2023-07-31T02:58:17;1.90;;;1.58;;
56181;SDS011;51963;46.052;14.544;2023-07-31T03:00:43;3.25;;;1.63;;
56181;SDS011;51963;46.052;14.544;2023-07-31T03:03:09;3.95;;;1.60;;
56181;SDS011;51963;46.052;14.544;2023-07-31T03:05:35;4.25;;;1.50;;
56181;SDS011;51963;46.052;14.544;2023-07-31T03:08:01;2.22;;;1.77;;
56181;SDS011;51963;46.052;14.544;2023-07-31T03:10:27;2.70;;;1.67;;
56181;SDS011;51963;46.052;14.544;2023-07-31T03:12:52;3.08;;;1.55;;
56181;SDS011;51963;46.052;14.544;2023-07-31T03:15:18;2.35;;;1.40;;
56181;SDS011;51963;46.052;14.544;2023-07-31T03:17:44;2.63;;;1.75;;
56181;SDS011;51963;46.052;14.544;2023-07-31T03:20:10;3.47;;;1.65;;
56181;SDS011;51963;46.052;14.544;2023-07-31T03:22:36;3.55;;;2.30;;
56181;SDS011;51963;46.052;14.544;2023-07-31T03:25:02;7.30;;;2.30;;
56181;SDS011;51963;46.052;14.544;2023-07-31T03:27:28;7.47;;;2.35;;
56181;SDS011;51963;46.052;14.544;2023-07-31T03:29:54;6.03;;;2.72;;
56181;SDS011;51963;46.052;14.544;2023-07-31T03:32:19;2.55;;;1.88;;
56181;SDS011;51963;46.052;14.544;2023-07-31T03:34:45;4.95;;;2.40;;
56181;SDS011;51963;46.052;14.544;2023-07-31T03:37:11;3.42;;;2.28;;
56181;SDS011;51963;46.052;14.544;2023-07-31T03:39:37;4.13;;;2.58;;
56181;SDS011;51963;46.052;14.544;2023-07-31T03:42:02;3.50;;;2.28;;
56181;SDS011;51963;46.052;14.544;2023-07-31T03:44:29;4.80;;;2.20;;
56181;SDS011;51963;46.052;14.544;2023-07-31T03:46:54;4.50;;;2.80;;
56181;SDS011;51963;46.052;14.544;2023-07-31T03:49:20;5.22;;;2.63;;
56181;SDS011;51963;46.052;14.544;2023-07-31T03:51:46;6.47;;;2.95;;
56181;SDS011;51963;46.052;14.544;2023-07-31T03:54:11;4.75;;;2.80;;
56181;SDS011;51963;46.052;14.544;2023-07-31T03:56:38;6.90;;;2.92;;
56181;SDS011;51963;46.052;14.544;2023-07-31T03:59:04;6.05;;;3.05;;
56181;SDS011;51963;46.052;14.544;2023-07-31T04:01:30;5.38;;;3.22;;
56181;SDS011;51963;46.052;14.544;2023-07-31T04:03:56;9.30;;;3.80;;
56181;SDS011;51963;46.052;14.544;2023-07-31T04:06:21;5.13;;;3.10;;
56181;SDS011;51963;46.052;14.544;2023-07-31T04:08:47;5.70;;;3.20;;
56181;SDS011;51963;46.052;14.544;2023-07-31T04:11:13;4.95;;;3.40;;
56181;SDS011;51963;46.052;14.544;2023-07-31T04:13:39;8.60;;;3.15;;
56181;SDS011;51963;46.052;14.544;2023-07-31T04:16:04;4.18;;;2.42;;
56181;SDS011;51963;46.052;14.544;2023-07-31T04:18:30;6.07;;;3.10;;
56181;SDS011;51963;46.052;14.544;2023-07-31T04:20:57;5.50;;;2.70;;
56181;SDS011;51963;46.052;14.544;2023-07-31T04:23:26;4.68;;;3.17;;
56181;SDS011;51963;46.052;14.544;2023-07-31T04:25:52;4.18;;;3.53;;
56181;SDS011;51963;46.052;14.544;2023-07-31T04:28:18;5.60;;;3.50;;
56181;SDS011;51963;46.052;14.544;2023-07-31T04:30:43;5.07;;;3.22;;
56181;SDS011;51963;46.052;14.544;2023-07-31T04:33:09;6.85;;;3.70;;
56181;SDS011;51963;46.052;14.544;2023-07-31T04:35:37;4.22;;;3.15;;
56181;SDS011;51963;46.052;14.544;2023-07-31T04:38:03;5.63;;;3.30;;
56181;SDS011;51963;46.052;14.544;2023-07-31T04:40:28;3.80;;;2.75;;
56181;SDS011;51963;46.052;14.544;2023-07-31T04:42:54;5.68;;;3.40;;
56181;SDS011;51963;46.052;14.544;2023-07-31T04:45:20;8.18;;;2.78;;
56181;SDS011;51963;46.052;14.544;2023-07-31T04:47:46;4.68;;;4.10;;
56181;SDS011;51963;46.052;14.544;2023-07-31T04:50:11;5.93;;;3.88;;
56181;SDS011;51963;46.052;14.544;2023-07-31T04:52:39;8.80;;;4.13;;
56181;SDS011;51963;46.052;14.544;2023-07-31T04:55:05;4.55;;;3.60;;
56181;SDS011;51963;46.052;14.544;2023-07-31T04:57:31;5.13;;;2.90;;
56181;SDS011;51963;46.052;14.544;2023-07-31T05:02:24;5.95;;;2.50;;
56181;SDS011;51963;46.052;14.544;2023-07-31T05:04:50;5.97;;;2.20;;
56181;SDS011;51963;46.052;14.544;2023-07-31T05:07:16;4.63;;;2.20;;
56181;SDS011;51963;46.052;14.544;2023-07-31T05:09:42;3.45;;;1.80;;
56181;SDS011;51963;46.052;14.544;2023-07-31T05:12:08;3.50;;;1.95;;
56181;SDS011;51963;46.052;14.544;2023-07-31T05:14:33;2.47;;;1.83;;
56181;SDS011;51963;46.052;14.544;2023-07-31T05:16:59;8.75;;;4.00;;
56181;SDS011;51963;46.052;14.544;2023-07-31T05:19:25;5.18;;;1.90;;
56181;SDS011;51963;46.052;14.544;2023-07-31T05:21:50;4.35;;;1.70;;
56181;SDS011;51963;46.052;14.544;2023-07-31T05:24:19;5.47;;;2.22;;
56181;SDS011;51963;46.052;14.544;2023-07-31T05:26:44;6.68;;;2.78;;
56181;SDS011;51963;46.052;14.544;2023-07-31T05:29:10;4.50;;;2.30;;
56181;SDS011;51963;46.052;14.544;2023-07-31T05:31:36;4.28;;;2.20;;
56181;SDS011;51963;46.052;14.544;2023-07-31T05:34:03;3.07;;;1.70;;
56181;SDS011;51963;46.052;14.544;2023-07-31T05:36:32;4.72;;;2.00;;
56181;SDS011;51963;46.052;14.544;2023-07-31T05:38:58;4.25;;;2.08;;
56181;SDS011;51963;46.052;14.544;2023-07-31T05:41:24;3.53;;;1.70;;
56181;SDS011;51963;46.052;14.544;2023-07-31T05:43:49;7.38;;;2.30;;
56181;SDS011;51963;46.052;14.544;2023-07-31T05:46:16;6.97;;;2.42;;
56181;SDS011;51963;46.052;14.544;2023-07-31T05:48:42;5.68;;;2.20;;
56181;SDS011;51963;46.052;14.544;2023-07-31T05:51:08;4.80;;;2.28;;
56181;SDS011;51963;46.052;14.544;2023-07-31T05:53:33;3.97;;;1.98;;
56181;SDS011;51963;46.052;14.544;2023-07-31T05:56:01;3.80;;;1.63;;
56181;SDS011;51963;46.052;14.544;2023-07-31T05:58:27;4.40;;;1.55;;
56181;SDS011;51963;46.052;14.544;2023-07-31T06:00:52;4.80;;;2.10;;
56181;SDS011;51963;46.052;14.544;2023-07-31T06:03:18;2.58;;;1.42;;
56181;SDS011;51963;46.052;14.544;2023-07-31T06:05:44;2.35;;;1.23;;
56181;SDS011;51963;46.052;14.544;2023-07-31T06:08:10;4.00;;;1.50;;
56181;SDS011;51963;46.052;14.544;2023-07-31T06:10:35;3.63;;;1.27;;
56181;SDS011;51963;46.052;14.544;2023-07-31T06:13:01;3.20;;;1.65;;
56181;SDS011;51963;46.052;14.544;2023-07-31T06:15:29;3.60;;;1.33;;
56181;SDS011;51963;46.052;14.544;2023-07-31T06:17:55;2.17;;;1.35;;
56181;SDS011;51963;46.052;14.544;2023-07-31T06:20:21;2.67;;;1.55;;
56181;SDS011;51963;46.052;14.544;2023-07-31T06:22:46;2.70;;;1.20;;
56181;SDS011;51963;46.052;14.544;2023-07-31T06:25:12;7.45;;;1.95;;
56181;SDS011;51963;46.052;14.544;2023-07-31T06:27:38;6.03;;;1.83;;
56181;SDS011;51963;46.052;14.544;2023-07-31T06:30:06;3.95;;;2.33;;
56181;SDS011;51963;46.052;14.544;2023-07-31T06:32:32;6.40;;;2.10;;
56181;SDS011;51963;46.052;14.544;2023-07-31T06:34:58;5.18;;;2.00;;
56181;SDS011;51963;46.052;14.544;2023-07-31T06:37:24;4.97;;;1.95;;
56181;SDS011;51963;46.052;14.544;2023-07-31T06:39:50;3.83;;;2.00;;
56181;SDS011;51963;46.052;14.544;2023-07-31T06:42:15;4.75;;;1.75;;
56181;SDS011;51963;46.052;14.544;2023-07-31T06:44:41;5.38;;;1.83;;
56181;SDS011;51963;46.052;14.544;2023-07-31T06:47:07;3.35;;;1.52;;
56181;SDS011;51963;46.052;14.544;2023-07-31T06:49:33;2.63;;;1.38;;
56181;SDS011;51963;46.052;14.544;2023-07-31T06:51:58;2.90;;;1.60;;
56181;SDS011;51963;46.052;14.544;2023-07-31T06:54:24;4.15;;;2.13;;
56181;SDS011;51963;46.052;14.544;2023-07-31T06:56:50;3.55;;;1.73;;
56181;SDS011;51963;46.052;14.544;2023-07-31T06:59:15;7.53;;;1.73;;
56181;SDS011;51963;46.052;14.544;2023-07-31T07:01:41;2.17;;;1.10;;
56181;SDS011;51963;46.052;14.544;2023-07-31T07:04:07;4.13;;;1.67;;
56181;SDS011;51963;46.052;14.544;2023-07-31T07:06:33;2.95;;;1.70;;
56181;SDS011;51963;46.052;14.544;2023-07-31T07:08:59;3.15;;;1.98;;
56181;SDS011;51963;46.052;14.544;2023-07-31T07:11:25;2.55;;;1.95;;
56181;SDS011;51963;46.052;14.544;2023-07-31T07:13:51;3.40;;;1.70;;
56181;SDS011;51963;46.052;14.544;2023-07-31T07:16:17;4.55;;;1.42;;
56181;SDS011;51963;46.052;14.544;2023-07-31T07:18:43;3.55;;;2.00;;
56181;SDS011;51963;46.052;14.544;2023-07-31T07:21:11;2.58;;;1.40;;
56181;SDS011;51963;46.052;14.544;2023-07-31T07:23:41;3.17;;;1.58;;
56181;SDS011;51963;46.052;14.544;2023-07-31T07:26:07;7.77;;;2.23;;
56181;SDS011;51963;46.052;14.544;2023-07-31T07:31:02;5.90;;;2.20;;
56181;SDS011;51963;46.052;14.544;2023-07-31T07:33:28;4.90;;;2.40;;
56181;SDS011;51963;46.052;14.544;2023-07-31T07:35:54;4.10;;;2.17;;
56181;SDS011;51963;46.052;14.544;2023-07-31T07:38:20;4.57;;;1.92;;
56181;SDS011;51963;46.052;14.544;2023-07-31T07:40:46;6.43;;;2.10;;
56181;SDS011;51963;46.052;14.544;2023-07-31T07:43:15;4.35;;;1.40;;
56181;SDS011;51963;46.052;14.544;2023-07-31T07:45:41;3.17;;;1.48;;
56181;SDS011;51963;46.052;14.544;2023-07-31T07:48:07;2.30;;;1.60;;
56181;SDS011;51963;46.052;14.544;2023-07-31T07:50:37;3.97;;;1.73;;
56181;SDS011;51963;46.052;14.544;2023-07-31T07:55:31;3.78;;;1.60;;
56181;SDS011;51963;46.052;14.544;2023-07-31T07:57:57;3.53;;;1.98;;
56181;SDS011;51963;46.052;14.544;2023-07-31T08:00:23;4.25;;;1.65;;
56181;SDS011;51963;46.052;14.544;2023-07-31T08:02:51;3.03;;;1.50;;
56181;SDS011;51963;46.052;14.544;2023-07-31T08:05:19;3.42;;;1.70;;
56181;SDS011;51963;46.052;14.544;2023-07-31T08:07:45;2.70;;;1.60;;
56181;SDS011;51963;46.052;14.544;2023-07-31T08:10:13;5.05;;;1.85;;
56181;SDS011;51963;46.052;14.544;2023-07-31T08:12:39;3.85;;;1.65;;
56181;SDS011;51963;46.052;14.544;2023-07-31T08:15:05;6.60;;;1.55;;
56181;SDS011;51963;46.052;14.544;2023-07-31T08:17:31;1.42;;;1.20;;
56181;SDS011;51963;46.052;14.544;2023-07-31T08:19:57;2.22;;;1.30;;
56181;SDS011;51963;46.052;14.544;2023-07-31T08:22:23;2.60;;;1.30;;
56181;SDS011;51963;46.052;14.544;2023-07-31T08:24:50;5.13;;;1.20;;
56181;SDS011;51963;46.052;14.544;2023-07-31T08:27:15;3.00;;;1.75;;
56181;SDS011;51963;46.052;14.544;2023-07-31T08:29:41;2.28;;;1.42;;
56181;SDS011;51963;46.052;14.544;2023-07-31T08:32:07;1.85;;;1.40;;
56181;SDS011;51963;46.052;14.544;2023-07-31T08:34:33;3.67;;;1.40;;
56181;SDS011;51963;46.052;14.544;2023-07-31T08:36:59;2.20;;;1.40;;
56181;SDS011;51963;46.052;14.544;2023-07-31T08:39:25;3.05;;;1.25;;
56181;SDS011;51963;46.052;14.544;2023-07-31T08:41:50;3.08;;;1.70;;
56181;SDS011;51963;46.052;14.544;2023-07-31T08:44:16;3.28;;;1.48;;
56181;SDS011;51963;46.052;14.544;2023-07-31T08:46:45;2.55;;;1.33;;
56181;SDS011;51963;46.052;14.544;2023-07-31T08:49:14;1.30;;;1.00;;
56181;SDS011;51963;46.052;14.544;2023-07-31T08:51:43;2.03;;;1.10;;
56181;SDS011;51963;46.052;14.544;2023-07-31T08:54:12;1.40;;;0.95;;
56181;SDS011;51963;46.052;14.544;2023-07-31T08:56:38;1.10;;;1.00;;
56181;SDS011;51963;46.052;14.544;2023-07-31T08:59:05;2.25;;;1.20;;
56181;SDS011;51963;46.052;14.544;2023-07-31T09:01:33;1.13;;;1.00;;
56181;SDS011;51963;46.052;14.544;2023-07-31T09:04:03;1.40;;;0.95;;
56181;SDS011;51963;46.052;14.544;2023-07-31T09:06:30;1.63;;;1.00;;
56181;SDS011;51963;46.052;14.544;2023-07-31T09:08:58;2.42;;;1.30;;
56181;SDS011;51963;46.052;14.544;2023-07-31T09:11:24;2.53;;;0.95;;
56181;SDS011;51963;46.052;14.544;2023-07-31T09:13:50;1.83;;;1.00;;
56181;SDS011;51963;46.052;14.544;2023-07-31T09:16:17;2.47;;;1.00;;
56181;SDS011;51963;46.052;14.544;2023-07-31T09:18:53;1.23;;;0.90;;
56181;SDS011;51963;46.052;14.544;2023-07-31T09:23:49;1.38;;;1.10;;
56181;SDS011;51963;46.052;14.544;2023-07-31T09:26:32;1.10;;;1.00;;
56181;SDS011;51963;46.052;14.544;2023-07-31T09:29:00;1.40;;;0.98;;
56181;SDS011;51963;46.052;14.544;2023-07-31T09:31:47;1.80;;;0.88;;
56181;SDS011;51963;46.052;14.544;2023-07-31T09:34:13;1.10;;;1.00;;
56181;SDS011;51963;46.052;14.544;2023-07-31T09:36:42;1.88;;;1.30;;
56181;SDS011;51963;46.052;14.544;2023-07-31T09:39:10;1.17;;;1.08;;
56181;SDS011;51963;46.052;14.544;2023-07-31T09:41:40;2.40;;;1.00;;
56181;SDS011;51963;46.052;14.544;2023-07-31T09:44:09;2.00;;;1.00;;
56181;SDS011;51963;46.052;14.544;2023-07-31T09:46:35;2.35;;;0.90;;
56181;SDS011;51963;46.052;14.544;2023-07-31T09:49:12;1.55;;;0.90;;
56181;SDS011;51963;46.052;14.544;2023-07-31T09:51:40;1.00;;;1.00;;
56181;SDS011;51963;46.052;14.544;2023-07-31T09:54:15;1.27;;;1.02;;
56181;SDS011;51963;46.052;14.544;2023-07-31T09:56:47;1.55;;;1.00;;
56181;SDS011;51963;46.052;14.544;2023-07-31T09:59:18;1.10;;;1.00;;
56181;SDS011;51963;46.052;14.544;2023-07-31T10:01:45;1.20;;;0.90;;
56181;SDS011;51963;46.052;14.544;2023-07-31T10:04:12;2.72;;;1.05;;
56181;SDS011;51963;46.052;14.544;2023-07-31T10:09:07;1.30;;;1.13;;
56181;SDS011;51963;46.052;14.544;2023-07-31T10:11:43;2.78;;;1.20;;
56181;SDS011;51963;46.052;14.544;2023-07-31T10:14:19;1.23;;;1.10;;
56181;SDS011;51963;46.052;14.544;2023-07-31T10:16:45;1.58;;;0.93;;
56181;SDS011;51963;46.052;14.544;2023-07-31T10:19:12;2.25;;;0.98;;
56181;SDS011;51963;46.052;14.544;2023-07-31T10:21:38;1.08;;;0.98;;
56181;SDS011;51963;46.052;14.544;2023-07-31T10:24:07;1.35;;;0.95;;
56181;SDS011;51963;46.052;14.544;2023-07-31T10:26:34;2.00;;;1.05;;
56181;SDS011;51963;46.052;14.544;2023-07-31T10:29:03;2.75;;;1.20;;
56181;SDS011;51963;46.052;14.544;2023-07-31T10:31:30;1.85;;;0.93;;
56181;SDS011;51963;46.052;14.544;2023-07-31T10:33:57;1.48;;;1.17;;
56181;SDS011;51963;46.052;14.544;2023-07-31T10:36:24;2.83;;;1.10;;
56181;SDS011;51963;46.052;14.544;2023-07-31T10:38:51;1.20;;;1.10;;
56181;SDS011;51963;46.052;14.544;2023-07-31T10:41:17;3.50;;;1.20;;
56181;SDS011;51963;46.052;14.544;2023-07-31T10:43:45;3.05;;;1.35;;
56181;SDS011;51963;46.052;14.544;2023-07-31T10:46:22;3.28;;;1.10;;
56181;SDS011;51963;46.052;14.544;2023-07-31T10:49:01;1.65;;;1.00;;
56181;SDS011;51963;46.052;14.544;2023-07-31T10:51:34;1.20;;;0.90;;
56181;SDS011;51963;46.052;14.544;2023-07-31T10:54:10;2.00;;;1.30;;
56181;SDS011;51963;46.052;14.544;2023-07-31T10:56:38;1.17;;;1.08;;
56181;SDS011;51963;46.052;14.544;2023-07-31T10:59:05;2.42;;;1.20;;
56181;SDS011;51963;46.052;14.544;2023-07-31T11:01:52;2.20;;;1.20;;
56181;SDS011;51963;46.052;14.544;2023-07-31T11:04:26;1.20;;;0.95;;
56181;SDS011;51963;46.052;14.544;2023-07-31T11:06:57;1.90;;;1.10;;
56181;SDS011;51963;46.052;14.544;2023-07-31T11:09:27;1.50;;;1.13;;
56181;SDS011;51963;46.052;14.544;2023-07-31T11:11:55;1.85;;;1.13;;
56181;SDS011;51963;46.052;14.544;2023-07-31T11:14:21;1.00;;;0.90;;
56181;SDS011;51963;46.052;14.544;2023-07-31T11:16:49;1.42;;;1.08;;
56181;SDS011;51963;46.052;14.544;2023-07-31T11:19:25;3.10;;;1.30;;
56181;SDS011;51963;46.052;14.544;2023-07-31T11:21:52;2.15;;;1.10;;
56181;SDS011;51963;46.052;14.544;2023-07-31T11:24:18;1.65;;;1.20;;
56181;SDS011;51963;46.052;14.544;2023-07-31T11:26:49;2.42;;;1.10;;
56181;SDS011;51963;46.052;14.544;2023-07-31T11:29:15;2.38;;;1.23;;
56181;SDS011;51963;46.052;14.544;2023-07-31T11:31:42;1.98;;;1.00;;
56181;SDS011;51963;46.052;14.544;2023-07-31T11:34:08;2.67;;;1.27;;
56181;SDS011;51963;46.052;14.544;2023-07-31T11:36:34;3.55;;;1.00;;
56181;SDS011;51963;46.052;14.544;2023-07-31T11:39:10;1.50;;;1.00;;
56181;SDS011;51963;46.052;14.544;2023-07-31T11:41:40;1.57;;;0.97;;
56181;SDS011;51963;46.052;14.544;2023-07-31T11:44:06;1.77;;;0.98;;
56181;SDS011;51963;46.052;14.544;2023-07-31T11:46:58;1.27;;;1.10;;
56181;SDS011;51963;46.052;14.544;2023-07-31T11:49:27;2.20;;;1.45;;
56181;SDS011;51963;46.052;14.544;2023-07-31T11:51:55;1.40;;;1.05;;
56181;SDS011;51963;46.052;14.544;2023-07-31T11:54:28;2.35;;;1.20;;
56181;SDS011;51963;46.052;14.544;2023-07-31T11:56:59;3.47;;;1.20;;
56181;SDS011;51963;46.052;14.544;2023-07-31T11:59:26;1.27;;;1.17;;
56181;SDS011;51963;46.052;14.544;2023-07-31T12:01:53;1.45;;;1.15;;
56181;SDS011;51963;46.052;14.544;2023-07-31T12:04:19;1.27;;;1.10;;
56181;SDS011;51963;46.052;14.544;2023-07-31T12:06:47;2.83;;;1.20;;
56181;SDS011;51963;46.052;14.544;2023-07-31T12:09:14;1.40;;;1.10;;
56181;SDS011;51963;46.052;14.544;2023-07-31T12:11:46;1.35;;;1.10;;
56181;SDS011;51963;46.052;14.544;2023-07-31T12:14:23;4.30;;;1.17;;
56181;SDS011;51963;46.052;14.544;2023-07-31T12:16:57;1.88;;;1.08;;
56181;SDS011;51963;46.052;14.544;2023-07-31T12:19:27;1.80;;;1.40;;
56181;SDS011;51963;46.052;14.544;2023-07-31T12:21:58;1.42;;;1.15;;
56181;SDS011;51963;46.052;14.544;2023-07-31T12:24:26;2.47;;;1.20;;
56181;SDS011;51963;46.052;14.544;2023-07-31T12:26:52;1.20;;;1.10;;
56181;SDS011;51963;46.052;14.544;2023-07-31T12:29:18;2.40;;;1.17;;
56181;SDS011;51963;46.052;14.544;2023-07-31T12:31:43;1.25;;;1.10;;
56181;SDS011;51963;46.052;14.544;2023-07-31T12:34:16;2.10;;;1.50;;
56181;SDS011;51963;46.052;14.544;2023-07-31T12:36:43;1.38;;;1.20;;
56181;SDS011;51963;46.052;14.544;2023-07-31T12:39:09;2.22;;;1.23;;
56181;SDS011;51963;46.052;14.544;2023-07-31T12:41:35;3.75;;;1.15;;
56181;SDS011;51963;46.052;14.544;2023-07-31T12:44:03;1.55;;;1.13;;
56181;SDS011;51963;46.052;14.544;2023-07-31T12:46:31;1.40;;;1.30;;
56181;SDS011;51963;46.052;14.544;2023-07-31T12:48:57;2.08;;;1.10;;
56181;SDS011;51963;46.052;14.544;2023-07-31T12:51:23;2.33;;;1.20;;
56181;SDS011;51963;46.052;14.544;2023-07-31T12:53:48;1.83;;;1.40;;
56181;SDS011;51963;46.052;14.544;2023-07-31T12:56:14;5.03;;;1.30;;
56181;SDS011;51963;46.052;14.544;2023-07-31T12:58:40;2.97;;;1.00;;
56181;SDS011;51963;46.052;14.544;2023-07-31T13:01:05;1.35;;;1.10;;
56181;SDS011;51963;46.052;14.544;2023-07-31T13:03:31;1.17;;;1.05;;
56181;SDS011;51963;46.052;14.544;2023-07-31T13:05:57;1.30;;;1.20;;
56181;SDS011;51963;46.052;14.544;2023-07-31T13:08:23;2.20;;;1.23;;
56181;SDS011;51963;46.052;14.544;2023-07-31T13:10:53;1.10;;;1.00;;
56181;SDS011;51963;46.052;14.544;2023-07-31T13:13:19;2.15;;;1.27;;
56181;SDS011;51963;46.052;14.544;2023-07-31T13:15:44;1.70;;;1.45;;
56181;SDS011;51963;46.052;14.544;2023-07-31T13:18:11;2.60;;;1.38;;
56181;SDS011;51963;46.052;14.544;2023-07-31T13:20:37;2.67;;;1.50;;
56181;SDS011;51963;46.052;14.544;2023-07-31T13:23:02;1.58;;;1.20;;
56181;SDS011;51963;46.052;14.544;2023-07-31T13:25:28;2.13;;;1.35;;
56181;SDS011;51963;46.052;14.544;2023-07-31T13:27:57;1.83;;;1.45;;
56181;SDS011;51963;46.052;14.544;2023-07-31T13:30:22;1.23;;;0.90;;
56181;SDS011;51963;46.052;14.544;2023-07-31T13:32:50;2.33;;;1.42;;
56181;SDS011;51963;46.052;14.544;2023-07-31T13:35:16;1.65;;;1.20;;
56181;SDS011;51963;46.052;14.544;2023-07-31T13:37:42;1.50;;;1.13;;
56181;SDS011;51963;46.052;14.544;2023-07-31T13:40:07;2.47;;;1.10;;
56181;SDS011;51963;46.052;14.544;2023-07-31T13:42:34;2.10;;;1.10;;
56181;SDS011;51963;46.052;14.544;2023-07-31T13:45:00;1.10;;;1.00;;
56181;SDS011;51963;46.052;14.544;2023-07-31T13:47:26;1.63;;;1.15;;
56181;SDS011;51963;46.052;14.544;2023-07-31T13:49:54;2.50;;;1.40;;
56181;SDS011;51963;46.052;14.544;2023-07-31T13:52:19;1.85;;;1.35;;
56181;SDS011;51963;46.052;14.544;2023-07-31T13:54:45;1.58;;;1.10;;
56181;SDS011;51963;46.052;14.544;2023-07-31T13:57:11;2.13;;;1.02;;
56181;SDS011;51963;46.052;14.544;2023-07-31T13:59:36;2.45;;;1.20;;
56181;SDS011;51963;46.052;14.544;2023-07-31T14:02:02;1.20;;;1.10;;
56181;SDS011;51963;46.052;14.544;2023-07-31T14:04:28;1.17;;;1.08;;
56181;SDS011;51963;46.052;14.544;2023-07-31T14:06:57;1.13;;;1.00;;
56181;SDS011;51963;46.052;14.544;2023-07-31T14:09:25;1.20;;;1.10;;
56181;SDS011;51963;46.052;14.544;2023-07-31T14:11:51;1.00;;;0.82;;
56181;SDS011;51963;46.052;14.544;2023-07-31T14:14:17;1.65;;;1.23;;
56181;SDS011;51963;46.052;14.544;2023-07-31T14:16:44;1.73;;;1.10;;
56181;SDS011;51963;46.052;14.544;2023-07-31T14:19:10;1.20;;;1.10;;
56181;SDS011;51963;46.052;14.544;2023-07-31T14:21:36;0.95;;;0.85;;
56181;SDS011;51963;46.052;14.544;2023-07-31T14:24:02;1.07;;;0.80;;
56181;SDS011;51963;46.052;14.544;2023-07-31T14:26:27;1.00;;;0.80;;
56181;SDS011;51963;46.052;14.544;2023-07-31T14:28:53;1.40;;;1.17;;
56181;SDS011;51963;46.052;14.544;2023-07-31T14:31:19;1.60;;;0.90;;
56181;SDS011;51963;46.052;14.544;2023-07-31T14:33:45;2.50;;;1.00;;
56181;SDS011;51963;46.052;14.544;2023-07-31T14:36:11;1.55;;;0.93;;
56181;SDS011;51963;46.052;14.544;2023-07-31T14:38:40;1.75;;;1.15;;
56181;SDS011;51963;46.052;14.544;2023-07-31T14:41:08;1.35;;;1.10;;
56181;SDS011;51963;46.052;14.544;2023-07-31T14:43:36;3.40;;;1.55;;
56181;SDS011;51963;46.052;14.544;2023-07-31T14:46:05;2.40;;;1.27;;
56181;SDS011;51963;46.052;14.544;2023-07-31T14:48:33;1.50;;;1.10;;
56181;SDS011;51963;46.052;14.544;2023-07-31T14:50:58;1.63;;;1.15;;
56181;SDS011;51963;46.052;14.544;2023-07-31T14:53:25;1.60;;;1.20;;
56181;SDS011;51963;46.052;14.544;2023-07-31T14:55:51;2.65;;;1.40;;